createdAt,value
2018-10-18T00:01:34.685Z,14.44
2018-10-18T00:04:04.137Z,14.38
2018-10-18T00:06:33.398Z,14.38
2018-10-18T00:09:02.642Z,14.34
2018-10-18T00:11:32.011Z,14.40
2018-10-18T00:14:01.270Z,14.39
2018-10-18T00:16:30.504Z,14.40
2018-10-18T00:18:59.763Z,14.37
2018-10-18T00:21:30.157Z,14.31
2018-10-18T00:23:59.527Z,14.29
2018-10-18T00:26:28.842Z,14.26
2018-10-18T00:28:58.071Z,14.26
2018-10-18T00:31:27.778Z,14.19
2018-10-18T00:33:57.041Z,14.17
2018-10-18T00:36:26.274Z,14.11
2018-10-18T00:38:55.582Z,14.07
2018-10-18T00:41:24.854Z,13.99
2018-10-18T00:43:54.119Z,13.95
2018-10-18T00:46:24.020Z,13.99
2018-10-18T00:48:53.252Z,14.00
2018-10-18T00:51:22.524Z,14.03
2018-10-18T00:53:51.841Z,13.98
2018-10-18T00:56:21.719Z,14.02
2018-10-18T00:58:50.937Z,14.02
2018-10-18T01:01:20.721Z,14.02
2018-10-18T01:03:50.649Z,14.07
2018-10-18T01:06:19.937Z,14.08
2018-10-18T01:08:49.350Z,14.03
2018-10-18T01:11:19.452Z,14.07
2018-10-18T01:13:48.874Z,14.14
2018-10-18T01:16:18.101Z,14.17
2018-10-18T01:18:47.407Z,14.17
2018-10-18T01:21:16.676Z,14.20
2018-10-18T01:23:45.998Z,14.15
2018-10-18T01:26:15.301Z,14.00
2018-10-18T01:28:44.577Z,13.96
2018-10-18T01:31:13.807Z,13.90
2018-10-18T01:33:43.269Z,13.82
2018-10-18T01:36:12.639Z,13.94
2018-10-18T01:38:41.811Z,13.85
2018-10-18T01:41:11.077Z,13.93
2018-10-18T01:43:40.577Z,13.97
2018-10-18T01:46:09.869Z,13.95
2018-10-18T01:48:39.119Z,13.90
2018-10-18T01:51:08.486Z,13.99
2018-10-18T01:53:38.362Z,14.03
2018-10-18T01:56:07.618Z,14.07
2018-10-18T01:58:38.837Z,14.04
2018-10-18T02:01:08.079Z,13.98
2018-10-18T02:03:37.415Z,14.03
2018-10-18T02:06:07.492Z,14.02
2018-10-18T02:08:36.777Z,14.05
2018-10-18T02:11:06.621Z,13.98
2018-10-18T02:13:36.205Z,14.06
2018-10-18T02:16:08.113Z,14.03
2018-10-18T02:18:37.380Z,13.92
2018-10-18T02:21:06.697Z,13.91
2018-10-18T02:23:36.154Z,13.96
2018-10-18T02:26:06.344Z,13.90
2018-10-18T02:28:36.051Z,13.81
2018-10-18T02:31:05.535Z,13.93
2018-10-18T02:33:34.756Z,13.97
2018-10-18T02:36:04.053Z,13.98
2018-10-18T02:38:33.256Z,13.99
2018-10-18T02:41:03.579Z,13.98
2018-10-18T02:43:32.879Z,13.93
2018-10-18T02:46:02.108Z,13.94
2018-10-18T02:48:31.302Z,13.91
2018-10-18T02:51:00.574Z,13.92
2018-10-18T02:53:29.801Z,13.86
2018-10-18T02:55:59.045Z,13.90
2018-10-18T02:58:28.288Z,13.93
2018-10-18T03:00:57.537Z,13.94
2018-10-18T03:03:26.776Z,13.90
2018-10-18T03:05:56.019Z,13.90
2018-10-18T03:08:25.240Z,13.99
2018-10-18T03:10:54.463Z,13.90
2018-10-18T03:13:23.666Z,13.93
2018-10-18T03:15:52.904Z,14.03
2018-10-18T03:18:22.129Z,14.02
2018-10-18T03:20:51.941Z,14.00
2018-10-18T03:23:21.392Z,14.01
2018-10-18T03:25:50.598Z,14.01
2018-10-18T03:28:19.897Z,14.05
2018-10-18T03:30:49.285Z,14.01
2018-10-18T03:33:24.810Z,13.94
2018-10-18T03:35:54.204Z,13.98
2018-10-18T03:38:23.466Z,13.99
2018-10-18T03:40:52.685Z,13.85
2018-10-18T03:43:22.441Z,13.92
2018-10-18T03:45:51.848Z,13.80
2018-10-18T03:48:21.170Z,13.78
2018-10-18T03:50:50.404Z,13.75
2018-10-18T03:53:19.698Z,13.56
2018-10-18T03:55:48.965Z,13.51
2018-10-18T03:58:18.217Z,13.43
2018-10-18T04:00:48.512Z,13.61
2018-10-18T04:03:17.844Z,13.46
2018-10-18T04:05:47.026Z,13.40
2018-10-18T04:08:16.226Z,13.35
2018-10-18T04:10:45.562Z,13.31
2018-10-18T04:13:14.916Z,13.28
2018-10-18T04:15:44.066Z,13.37
2018-10-18T04:18:13.353Z,13.24
2018-10-18T04:20:42.555Z,13.34
2018-10-18T04:23:11.892Z,13.32
2018-10-18T04:25:41.216Z,13.37
2018-10-18T04:28:10.459Z,13.33
2018-10-18T04:30:39.684Z,13.32
2018-10-18T04:33:09.070Z,13.36
2018-10-18T04:35:38.282Z,13.21
2018-10-18T04:38:07.491Z,13.21
2018-10-18T04:40:36.709Z,13.27
2018-10-18T04:43:06.295Z,13.24
2018-10-18T04:45:36.488Z,13.19
2018-10-18T04:48:05.899Z,13.29
2018-10-18T04:50:35.012Z,13.24
2018-10-18T04:53:04.245Z,13.16
2018-10-18T04:55:33.442Z,13.18
2018-10-18T04:58:04.428Z,13.23
2018-10-18T05:00:33.713Z,13.26
2018-10-18T05:03:03.026Z,13.34
2018-10-18T05:05:56.037Z,13.43
2018-10-18T05:08:26.142Z,13.34
2018-10-18T05:10:55.746Z,13.37
2018-10-18T05:13:25.181Z,13.44
2018-10-18T05:15:54.409Z,13.41
2018-10-18T05:18:24.057Z,13.47
2018-10-18T05:20:53.440Z,13.48
2018-10-18T05:23:22.637Z,13.49
2018-10-18T05:25:52.221Z,13.52
2018-10-18T05:28:22.038Z,13.39
2018-10-18T05:30:51.276Z,13.50
2018-10-18T05:33:20.535Z,13.51
2018-10-18T05:35:50.787Z,13.63
2018-10-18T05:38:20.683Z,13.66
2018-10-18T05:40:49.912Z,13.50
2018-10-18T05:43:19.303Z,13.43
2018-10-18T05:45:48.528Z,13.47
2018-10-18T05:48:17.776Z,13.39
2018-10-18T05:50:47.050Z,13.49
2018-10-18T05:53:16.607Z,13.50
2018-10-18T05:55:45.797Z,13.49
2018-10-18T05:58:15.089Z,13.53
2018-10-18T06:00:45.129Z,13.52
2018-10-18T06:03:14.561Z,13.51
2018-10-18T06:05:44.039Z,13.68
2018-10-18T06:08:13.537Z,13.73
2018-10-18T06:10:54.481Z,13.59
2018-10-18T06:13:23.910Z,13.56
2018-10-18T06:15:53.255Z,13.57
2018-10-18T06:18:22.642Z,13.57
2018-10-18T06:20:51.906Z,13.65
2018-10-18T06:23:21.489Z,13.73
2018-10-18T06:25:50.717Z,13.92
2018-10-18T06:28:20.097Z,13.89
2018-10-18T06:30:50.474Z,13.99
2018-10-18T06:33:19.826Z,14.11
2018-10-18T06:35:49.140Z,14.12
2018-10-18T06:38:19.495Z,14.01
2018-10-18T06:40:49.396Z,14.08
2018-10-18T06:43:18.740Z,13.93
2018-10-18T06:45:47.991Z,13.96
2018-10-18T06:48:17.784Z,14.08
2018-10-18T06:50:47.104Z,14.12
2018-10-18T06:53:16.529Z,14.13
2018-10-18T06:55:46.210Z,14.14
2018-10-18T06:58:15.630Z,14.30
2018-10-18T07:00:44.919Z,14.44
2018-10-18T07:03:14.325Z,14.47
2018-10-18T07:05:43.602Z,14.59
2018-10-18T07:08:12.855Z,14.57
2018-10-18T07:10:42.240Z,14.66
2018-10-18T07:13:11.609Z,14.65
2018-10-18T07:15:40.982Z,14.62
2018-10-18T07:18:10.518Z,14.61
2018-10-18T07:20:39.705Z,14.65
2018-10-18T07:23:08.933Z,14.59
2018-10-18T07:25:38.340Z,14.46
2018-10-18T07:28:07.747Z,14.43
2018-10-18T07:30:37.644Z,14.37
2018-10-18T07:33:06.928Z,14.31
2018-10-18T07:35:36.345Z,14.28
2018-10-18T07:38:06.778Z,14.26
2018-10-18T07:40:36.054Z,14.29
2018-10-18T07:43:05.768Z,14.15
2018-10-18T07:45:35.076Z,14.27
2018-10-18T07:48:04.584Z,14.24
2018-10-18T07:50:34.082Z,14.19
2018-10-18T07:53:03.357Z,14.09
2018-10-18T07:55:33.483Z,14.10
2018-10-18T07:58:03.206Z,14.02
2018-10-18T08:00:32.552Z,13.97
2018-10-18T08:03:01.815Z,13.80
2018-10-18T08:05:31.104Z,13.83
2018-10-18T08:08:00.352Z,13.86
2018-10-18T08:10:34.891Z,13.85
2018-10-18T08:13:07.015Z,13.79
2018-10-18T08:15:36.301Z,13.95
2018-10-18T08:18:05.946Z,13.93
2018-10-18T08:20:35.205Z,13.83
2018-10-18T08:23:04.536Z,13.66
2018-10-18T08:25:34.118Z,13.55
2018-10-18T08:28:03.442Z,13.44
2018-10-18T08:30:32.843Z,13.41
2018-10-18T08:33:02.068Z,13.24
2018-10-18T08:35:32.657Z,13.27
2018-10-18T08:38:03.194Z,13.20
2018-10-18T08:40:33.562Z,12.96
2018-10-18T08:43:03.050Z,12.91
2018-10-18T08:45:32.381Z,12.87
2018-10-18T08:48:01.767Z,12.71
2018-10-18T08:50:31.153Z,12.78
2018-10-18T08:53:00.928Z,12.70
2018-10-18T08:55:30.214Z,12.73
2018-10-18T08:57:59.542Z,12.55
2018-10-18T09:00:28.854Z,12.55
2018-10-18T09:02:59.070Z,12.64
2018-10-18T09:05:28.323Z,12.88
2018-10-18T09:07:58.333Z,12.83
2018-10-18T09:10:27.621Z,12.86
2018-10-18T09:12:57.027Z,12.89
2018-10-18T09:15:26.233Z,12.86
2018-10-18T09:17:55.510Z,12.70
2018-10-18T09:20:24.908Z,12.68
2018-10-18T09:22:55.245Z,12.85
2018-10-18T09:25:24.566Z,13.08
2018-10-18T09:27:53.963Z,13.28
2018-10-18T09:30:23.577Z,13.36
2018-10-18T09:32:52.824Z,13.51
2018-10-18T09:35:22.100Z,13.34
2018-10-18T09:37:51.374Z,13.19
2018-10-18T09:40:22.205Z,13.04
2018-10-18T09:42:51.510Z,12.96
2018-10-18T09:45:20.783Z,13.06
2018-10-18T09:47:50.079Z,12.96
2018-10-18T09:50:19.351Z,12.93
2018-10-18T09:52:49.355Z,13.08
2018-10-18T09:55:18.803Z,13.17
2018-10-18T09:57:47.983Z,13.20
2018-10-18T10:00:22.641Z,13.19
2018-10-18T10:02:57.294Z,13.13
2018-10-18T10:05:26.665Z,13.14
2018-10-18T10:07:55.936Z,13.08
2018-10-18T10:10:25.239Z,13.10
2018-10-18T10:12:54.589Z,13.11
2018-10-18T10:15:23.856Z,13.10
2018-10-18T10:17:53.155Z,13.15
2018-10-18T10:20:22.540Z,13.17
2018-10-18T10:22:57.055Z,13.28
2018-10-18T10:25:26.859Z,13.46
2018-10-18T10:27:56.646Z,13.28
2018-10-18T10:30:26.358Z,13.42
2018-10-18T10:32:55.714Z,13.38
2018-10-18T10:35:24.918Z,13.38
2018-10-18T10:37:54.186Z,13.54
2018-10-18T10:40:24.430Z,13.34
2018-10-18T10:42:53.761Z,13.48
2018-10-18T10:45:23.121Z,13.64
2018-10-18T10:47:52.789Z,13.63
2018-10-18T10:50:22.059Z,13.94
2018-10-18T10:52:51.312Z,13.96
2018-10-18T10:55:20.815Z,13.93
2018-10-18T10:57:50.046Z,13.90
2018-10-18T11:01:28.682Z,14.00
2018-10-18T11:03:59.287Z,13.98
2018-10-18T11:06:28.594Z,14.76
2018-10-18T11:08:58.078Z,15.55
2018-10-18T11:11:27.254Z,16.21
2018-10-18T11:13:56.620Z,15.42
2018-10-18T11:16:25.873Z,15.65
2018-10-18T11:18:55.152Z,15.38
2018-10-18T11:21:24.500Z,15.51
2018-10-18T11:23:53.799Z,15.69
2018-10-18T11:26:23.289Z,16.20
2018-10-18T11:28:52.390Z,16.06
2018-10-18T11:31:21.691Z,16.69
2018-10-18T11:33:50.999Z,16.58
2018-10-18T11:36:20.305Z,15.69
2018-10-18T11:38:49.674Z,14.78
2018-10-18T11:41:18.934Z,14.67
2018-10-18T11:43:48.210Z,14.74
2018-10-18T11:46:17.480Z,15.46
2018-10-18T11:48:46.813Z,15.25
2018-10-18T11:51:16.102Z,15.41
2018-10-18T11:53:45.493Z,15.18
2018-10-18T11:56:14.868Z,15.74
2018-10-18T11:58:44.251Z,16.43
2018-10-18T12:01:13.654Z,16.90
2018-10-18T12:03:42.949Z,16.03
2018-10-18T12:06:12.205Z,15.31
2018-10-18T12:08:41.542Z,15.14
2018-10-18T12:11:10.863Z,14.49
2018-10-18T12:13:40.145Z,14.07
2018-10-18T12:16:09.422Z,14.06
2018-10-18T12:18:38.762Z,14.06
2018-10-18T12:21:07.991Z,14.20
2018-10-18T12:23:37.514Z,14.36
2018-10-18T12:26:06.851Z,14.49
2018-10-18T12:28:36.098Z,14.28
2018-10-18T12:31:05.522Z,14.20
2018-10-18T12:33:34.746Z,14.13
2018-10-18T12:36:04.182Z,14.01
2018-10-18T12:38:33.441Z,13.96
2018-10-18T12:41:02.766Z,14.07
2018-10-18T12:43:32.006Z,14.13
2018-10-18T12:46:01.300Z,14.09
2018-10-18T12:48:30.667Z,14.06
2018-10-18T12:50:59.925Z,14.11
2018-10-18T12:53:29.239Z,14.12
2018-10-18T12:55:58.591Z,14.28
2018-10-18T12:58:27.854Z,14.37
2018-10-18T13:00:57.225Z,14.44
2018-10-18T13:03:27.606Z,14.40
2018-10-18T13:05:56.896Z,14.25
2018-10-18T13:08:26.458Z,14.37
2018-10-18T13:10:55.773Z,14.43
2018-10-18T13:13:25.037Z,14.38
2018-10-18T13:15:54.417Z,14.36
2018-10-18T13:18:23.677Z,14.49
2018-10-18T13:20:53.037Z,14.25
2018-10-18T13:23:22.306Z,14.14
2018-10-18T13:25:51.810Z,14.10
2018-10-18T13:28:21.186Z,14.23
2018-10-18T13:30:50.421Z,14.38
2018-10-18T13:33:19.821Z,14.39
2018-10-18T13:35:49.107Z,14.29
2018-10-18T13:38:18.367Z,14.26
2018-10-18T13:40:47.720Z,14.15
2018-10-18T13:43:17.276Z,14.21
2018-10-18T13:45:46.565Z,14.23
2018-10-18T13:48:16.008Z,14.17
2018-10-18T13:50:45.194Z,14.06
2018-10-18T13:53:14.579Z,14.03
2018-10-18T13:55:43.902Z,14.05
2018-10-18T13:58:13.179Z,14.00
2018-10-18T14:00:42.570Z,14.05
2018-10-18T14:03:11.910Z,14.07
2018-10-18T14:05:41.271Z,14.13
2018-10-18T14:08:10.578Z,14.15
2018-10-18T14:10:39.792Z,14.12
2018-10-18T14:13:09.065Z,13.99
2018-10-18T14:15:40.354Z,13.97
2018-10-18T14:18:09.611Z,13.96
2018-10-18T14:20:39.972Z,14.05
2018-10-18T14:23:09.390Z,14.15
2018-10-18T14:25:38.576Z,14.29
2018-10-18T14:28:08.018Z,14.34
2018-10-18T14:30:37.287Z,14.24
2018-10-18T14:33:06.826Z,14.00
2018-10-18T14:35:36.103Z,13.94
2018-10-18T14:38:05.445Z,13.92
2018-10-18T14:40:34.747Z,13.80
2018-10-18T14:43:04.198Z,13.73
2018-10-18T14:45:33.510Z,13.76
2018-10-18T14:48:03.853Z,13.72
2018-10-18T14:50:33.288Z,13.77
2018-10-18T14:53:02.601Z,13.81
2018-10-18T14:55:32.632Z,13.89
2018-10-18T14:58:01.939Z,13.86
2018-10-18T15:00:31.242Z,14.00
2018-10-18T15:03:00.607Z,13.91
2018-10-18T15:05:29.900Z,13.84
2018-10-18T15:07:59.190Z,13.84
2018-10-18T15:10:28.504Z,13.76
2018-10-18T15:12:57.929Z,13.79
2018-10-18T15:15:27.399Z,13.70
2018-10-18T15:17:56.758Z,13.67
2018-10-18T15:20:26.047Z,13.58
2018-10-18T15:22:55.336Z,13.46
2018-10-18T15:25:24.902Z,13.41
2018-10-18T15:27:54.099Z,13.36
2018-10-18T15:30:23.362Z,13.33
2018-10-18T15:32:52.700Z,13.31
2018-10-18T15:35:21.975Z,13.28
2018-10-18T15:37:51.349Z,13.25
2018-10-18T15:40:20.631Z,13.32
2018-10-18T15:42:49.865Z,13.22
2018-10-18T15:45:20.738Z,13.26
2018-10-18T15:47:49.983Z,13.19
2018-10-18T15:50:19.238Z,13.10
2018-10-18T15:52:48.567Z,13.06
2018-10-18T15:55:17.866Z,13.01
2018-10-18T15:57:47.139Z,12.93
2018-10-18T16:00:16.718Z,12.88
2018-10-18T16:02:45.892Z,12.84
2018-10-18T16:05:15.236Z,12.85
2018-10-18T16:07:44.567Z,12.87
2018-10-18T16:10:13.873Z,12.81
2018-10-18T16:12:43.403Z,12.77
2018-10-18T16:15:12.695Z,12.69
2018-10-18T16:17:42.155Z,12.68
2018-10-18T16:20:11.588Z,12.58
2018-10-18T16:22:40.834Z,12.54
2018-10-18T16:25:11.381Z,12.49
2018-10-18T16:27:41.450Z,12.51
2018-10-18T16:30:10.885Z,12.39
2018-10-18T16:32:40.183Z,12.33
2018-10-18T16:35:09.753Z,12.28
2018-10-18T16:37:39.246Z,12.20
2018-10-18T16:40:08.551Z,12.16
2018-10-18T16:42:37.844Z,12.07
2018-10-18T16:45:09.365Z,12.04
2018-10-18T16:47:38.714Z,11.97
2018-10-18T16:50:08.461Z,11.94
2018-10-18T16:52:38.185Z,11.91
2018-10-18T16:55:07.719Z,11.84
2018-10-18T16:57:36.953Z,11.87
2018-10-18T17:00:08.027Z,11.82
2018-10-18T17:02:37.360Z,11.79
2018-10-18T17:05:06.679Z,11.72
2018-10-18T17:07:36.070Z,11.68
2018-10-18T17:10:05.882Z,11.70
2018-10-18T17:12:35.189Z,11.68
2018-10-18T17:15:04.952Z,11.63
2018-10-18T17:17:34.510Z,11.64
2018-10-18T17:20:03.896Z,11.65
2018-10-18T17:22:33.135Z,11.70
2018-10-18T17:25:02.589Z,11.70
2018-10-18T17:27:31.967Z,11.68
2018-10-18T17:30:01.271Z,11.60
2018-10-18T17:32:30.546Z,11.61
2018-10-18T17:34:59.791Z,11.55
2018-10-18T17:37:29.107Z,11.46
2018-10-18T17:39:58.379Z,11.52
2018-10-18T17:42:27.637Z,11.55
2018-10-18T17:44:57.111Z,11.55
2018-10-18T17:47:26.310Z,11.58
2018-10-18T17:49:55.670Z,11.59
2018-10-18T17:52:24.973Z,11.50
2018-10-18T17:54:54.210Z,11.52
2018-10-18T17:57:23.487Z,11.55
2018-10-18T17:59:53.092Z,11.56
2018-10-18T18:02:22.540Z,11.42
2018-10-18T18:04:52.494Z,11.40
2018-10-18T18:07:22.311Z,11.30
2018-10-18T18:09:51.566Z,11.17
2018-10-18T18:12:21.936Z,11.16
2018-10-18T18:14:51.278Z,11.22
2018-10-18T18:17:20.590Z,11.16
2018-10-18T18:19:49.853Z,11.16
2018-10-18T18:22:19.177Z,11.19
2018-10-18T18:24:48.415Z,11.12
2018-10-18T18:27:17.643Z,11.07
2018-10-18T18:29:46.962Z,11.12
2018-10-18T18:32:16.245Z,11.10
2018-10-18T18:34:45.498Z,11.16
2018-10-18T18:37:15.159Z,11.19
2018-10-18T18:39:44.460Z,11.15
2018-10-18T18:42:13.743Z,11.17
2018-10-18T18:44:43.029Z,11.18
2018-10-18T18:47:12.380Z,11.14
2018-10-18T18:49:41.646Z,11.08
2018-10-18T18:52:11.029Z,11.04
2018-10-18T18:54:41.494Z,11.01
2018-10-18T18:57:10.792Z,10.97
2018-10-18T18:59:39.997Z,10.92
2018-10-18T19:02:09.248Z,10.91
2018-10-18T19:04:38.605Z,10.76
2018-10-18T19:07:07.858Z,10.62
2018-10-18T19:09:37.084Z,10.62
2018-10-18T19:12:07.427Z,10.79
2018-10-18T19:14:36.653Z,10.68
2018-10-18T19:17:06.431Z,10.73
2018-10-18T19:19:36.830Z,10.83
2018-10-18T19:22:06.625Z,10.80
2018-10-18T19:24:35.921Z,10.84
2018-10-18T19:27:06.085Z,10.86
2018-10-18T19:29:35.361Z,10.94
2018-10-18T19:32:04.986Z,10.80
2018-10-18T19:34:34.241Z,10.82
2018-10-18T19:37:03.586Z,10.82
2018-10-18T19:39:32.829Z,10.79
2018-10-18T19:42:02.145Z,10.80
2018-10-18T19:44:32.442Z,10.70
2018-10-18T19:47:02.841Z,10.68
2018-10-18T19:49:32.074Z,10.63
2018-10-18T19:52:02.486Z,10.67
2018-10-18T19:54:31.726Z,10.75
2018-10-18T19:57:01.011Z,10.69
2018-10-18T19:59:30.390Z,10.52
2018-10-18T20:02:01.501Z,10.59
2018-10-18T20:04:30.852Z,10.59
2018-10-18T20:07:00.183Z,10.68
2018-10-18T20:09:29.510Z,10.63
2018-10-18T20:11:58.806Z,10.60
2018-10-18T20:14:29.768Z,10.64
2018-10-18T20:16:59.014Z,10.62
2018-10-18T20:19:28.310Z,10.51
2018-10-18T20:21:57.688Z,10.33
2018-10-18T20:24:27.003Z,10.24
2018-10-18T20:26:56.263Z,10.24
2018-10-18T20:29:25.608Z,10.30
2018-10-18T20:31:54.862Z,10.02
2018-10-18T20:34:24.157Z,9.88
2018-10-18T20:36:53.512Z,9.86
2018-10-18T20:39:22.869Z,9.97
2018-10-18T20:41:52.174Z,9.90
2018-10-18T20:44:21.979Z,9.76
2018-10-18T20:46:51.476Z,9.77
2018-10-18T20:49:20.607Z,9.78
2018-10-18T20:51:49.923Z,9.82
2018-10-18T20:54:19.297Z,9.76
2018-10-18T20:56:48.635Z,9.80
2018-10-18T20:59:18.074Z,9.61
2018-10-18T21:01:47.313Z,9.56
2018-10-18T21:04:16.535Z,9.62
2018-10-18T21:06:46.031Z,9.58
2018-10-18T21:09:15.217Z,9.40
2018-10-18T21:11:44.407Z,9.38
2018-10-18T21:14:13.762Z,9.32
2018-10-18T21:16:44.137Z,9.31
2018-10-18T21:19:13.333Z,9.29
2018-10-18T21:21:43.734Z,9.33
2018-10-18T21:24:13.014Z,9.33
2018-10-18T21:26:42.379Z,9.21
2018-10-18T21:29:11.745Z,9.23
2018-10-18T21:31:40.932Z,9.30
2018-10-18T21:34:10.411Z,9.31
2018-10-18T21:36:39.698Z,9.35
2018-10-18T21:39:09.059Z,9.41
2018-10-18T21:41:38.282Z,9.25
2018-10-18T21:44:09.620Z,9.28
2018-10-18T21:46:38.881Z,9.22
2018-10-18T21:49:08.130Z,9.25
2018-10-18T21:51:37.415Z,9.22
2018-10-18T21:54:06.666Z,9.10
2018-10-18T21:56:35.926Z,9.11
2018-10-18T21:59:05.363Z,9.18
2018-10-18T22:01:34.530Z,9.20
2018-10-18T22:04:03.962Z,9.16
2018-10-18T22:06:33.372Z,9.12
2018-10-18T22:09:02.678Z,9.08
2018-10-18T22:11:31.951Z,9.02
2018-10-18T22:14:01.422Z,9.13
2018-10-18T22:16:30.616Z,9.13
2018-10-18T22:18:59.819Z,9.14
2018-10-18T22:21:29.119Z,9.20
2018-10-18T22:23:58.370Z,9.10
2018-10-18T22:26:27.720Z,9.19
2018-10-18T22:28:57.026Z,9.16
2018-10-18T22:31:26.481Z,9.11
2018-10-18T22:33:56.001Z,9.00
2018-10-18T22:36:25.694Z,8.96
2018-10-18T22:38:55.063Z,8.95
2018-10-18T22:41:24.339Z,8.95
2018-10-18T22:43:53.562Z,8.84
2018-10-18T22:46:22.799Z,8.85
2018-10-18T22:48:52.015Z,8.86
2018-10-18T22:51:22.422Z,8.83
2018-10-18T22:53:51.790Z,8.81
2018-10-18T22:56:21.067Z,8.73
2018-10-18T22:58:50.509Z,8.77
2018-10-18T23:01:19.832Z,8.75
2018-10-18T23:03:49.254Z,8.70
2018-10-18T23:06:19.600Z,8.76
2018-10-18T23:08:48.874Z,8.76
2018-10-18T23:11:18.283Z,8.76
2018-10-18T23:13:47.480Z,8.53
2018-10-18T23:16:16.799Z,8.53
2018-10-18T23:18:47.128Z,8.56
2018-10-18T23:21:17.453Z,8.57
2018-10-18T23:23:46.738Z,8.51
2018-10-18T23:26:15.970Z,8.43
2018-10-18T23:28:45.264Z,8.44
2018-10-18T23:31:14.496Z,8.39
2018-10-18T23:33:43.826Z,8.42
2018-10-18T23:36:13.153Z,8.34
2018-10-18T23:38:42.370Z,8.36
2018-10-18T23:41:11.661Z,8.26
2018-10-18T23:43:40.906Z,8.24
2018-10-18T23:46:10.090Z,8.13
2018-10-18T23:48:39.333Z,8.14
2018-10-18T23:51:08.627Z,8.24
2018-10-18T23:53:37.833Z,8.24
2018-10-18T23:56:07.059Z,8.27
2018-10-18T23:58:36.276Z,8.21
